首页
METAR-TAF:

METAR-TAF

机场 :

蒙特利尔-米拉贝勒国际机场

蒙特利尔米拉贝尔, 魁北克, 加拿大

纬度: 45-41N, 经度: 074-02W, 海拔: 82米

当前天气观测

该预报发布于19分钟前的13:00 UTC
风速2节,风向多变
温度 -3°C
湿度 86%
气压 1014 hPa
能見度: 48.3公里
多云层高于3700英尺
多云层高于9000英尺

METAR: CYMX 031300Z VRB02KT 30SM BKN037 BKN090 M03/M05 A2993 RMK SC5AC2 SLP141

时间: 08:19 (13:19 UTC)

预报

该预报发布于1小时和41分钟前的11:38 UTC
预报有效从03日的 12点(UTC)到 04日的 12点(UTC)
风速7节,风向西南
能見度: 10公里
多云层高于3000英尺
短暂存在
从 03日的 12点(UTC)到 03日的 15点(UTC)
能見度: 6.4公里
阴天层高于1500英尺
小雪
几率 30%
从 03日的 12点(UTC)到 03日的 14点(UTC)
能見度: 8.0公里
阴天层高于700英尺
(小) 冻, 毛毛雨, 轻雾
从 03日的 1500点(UTC)
风速10节,风向西南,有时为20节阵风
能見度: 10公里
阴天层高于2000英尺
小雨, 雪
从 03日的 1700点(UTC)
风速10节,风向西南,有时为20节阵风
能見度: 10公里
多云层高于4000英尺
从 03日的 2000点(UTC)
风速10节,风向西南,有时为20节阵风
能見度: 10公里
阴天层高于3000英尺
小阵雨
从 04日的 0200点(UTC)
风速10节,风向西南,有时为20节阵风
能見度: 4.8公里
阴天层高于2000英尺
小雨, 雪
几率 30%
从 04日的 08点(UTC)到 04日的 12点(UTC)
能見度: 1.6公里
阴天层高于500英尺
轻雾

TAF: CYMX 031138Z 0312/0412 22007KT P6SM BKN030 TEMPO 0312/0315 4SM -SN OVC015 PROB30 0312/0314 5SM -FZDZ BR OVC007 FM031500 23010G20KT P6SM -RASN OVC020 FM031700 23010G20KT P6SM BKN040 FM032000 23010G20KT P6SM -SHRA OVC030 FM040200 23010G20KT 3SM -RASN OVC020 PROB30 0408/0412 1SM BR OVC005 RMK NXT FCST BY 031800Z

超过4000个机场的气象观测和天气预报(METAR&TAF报告)。

可查询的气象台以黄色和红色小点在地图上表示。

将鼠标移到小点上方,可查看气象台名称。

然后点击查看天气观测和预报。

如需切换地图:点击带黑十字的绿色按钮放大地图;点击带横线的绿色按钮缩小地图;或者点击绿色箭头查看邻近地区的地图。


METAR-TAF: